Time;durP1;ratioP1;P1;durP2;ratioP2;P2;SDS_P1;SDS_P2;PMS_P1;PMS_P2;Temp;Humidity;BMP_temperature;BMP_pressure;BME280_temperature;BME280_humidity;BME280_pressure;Samples;Min_cycle;Max_cycle;Signal;HPM_P1;HPM_P2
2023/03/09 00:00:50;;;;;;;19.30;12.67;;;1.50;99.90;;;;;;5076400;28;20476;-56
2023/03/09 00:03:17;;;;;;;20.50;14.30;;;1.50;99.90;;;;;;5077204;28;20461;-52
2023/03/09 00:05:52;;;;;;;19.30;13.70;;;1.50;99.90;;;;;;5077128;28;20461;-56
2023/03/09 00:08:20;;;;;;;19.93;13.77;;;1.50;99.90;;;;;;5077012;28;20452;-56
2023/03/09 00:10:52;;;;;;;19.00;13.30;;;1.50;99.90;;;;;;5076259;28;20461;-53
2023/03/09 00:13:19;;;;;;;18.30;12.87;;;1.50;99.90;;;;;;5076929;28;20465;-52
2023/03/09 00:15:50;;;;;;;19.90;13.47;;;1.50;99.90;;;;;;5075309;28;20771;-52
2023/03/09 00:18:17;;;;;;;17.47;12.90;;;1.60;99.90;;;;;;5075937;28;20577;-55
2023/03/09 00:20:44;;;;;;;17.57;12.10;;;1.60;99.90;;;;;;5077117;28;20732;-54
2023/03/09 00:23:11;;;;;;;19.60;12.97;;;1.60;99.90;;;;;;5077302;28;20485;-54
2023/03/09 00:25:40;;;;;;;18.60;13.33;;;1.60;99.90;;;;;;5076279;28;20457;-56
2023/03/09 00:28:07;;;;;;;18.23;12.77;;;1.60;99.90;;;;;;5057214;28;20757;-56
2023/03/09 00:30:35;;;;;;;17.43;12.80;;;1.60;99.90;;;;;;5056724;28;20462;-58
2023/03/09 00:33:02;;;;;;;18.20;12.20;;;1.60;99.90;;;;;;5060691;28;20457;-52
2023/03/09 00:35:29;;;;;;;16.90;11.17;;;1.60;99.90;;;;;;5080711;28;20457;-58
2023/03/09 00:37:56;;;;;;;17.27;12.27;;;1.60;99.90;;;;;;5080847;28;20489;-55
2023/03/09 00:40:24;;;;;;;18.17;11.90;;;1.60;99.90;;;;;;5080841;28;20457;-56
2023/03/09 00:42:52;;;;;;;17.93;12.50;;;1.60;99.90;;;;;;5080207;28;20771;-57
2023/03/09 00:45:22;;;;;;;15.70;11.30;;;1.60;99.90;;;;;;5080405;28;20465;-54
2023/03/09 00:47:49;;;;;;;15.93;11.43;;;1.60;99.90;;;;;;5080587;28;20874;-54
2023/03/09 00:50:16;;;;;;;15.27;11.27;;;1.60;99.90;;;;;;5078534;28;20476;-52
2023/03/09 00:52:43;;;;;;;17.27;12.20;;;1.50;99.90;;;;;;5078621;28;20468;-56
2023/03/09 00:55:11;;;;;;;19.40;12.90;;;1.60;99.90;;;;;;5074587;28;20439;-58
2023/03/09 00:57:38;;;;;;;17.80;11.80;;;1.50;99.90;;;;;;5060743;28;20490;-54
2023/03/09 01:00:09;;;;;;;16.23;11.83;;;1.50;99.90;;;;;;5060399;28;20891;-56
2023/03/09 01:02:36;;;;;;;14.50;10.30;;;1.50;99.90;;;;;;5068478;28;20496;-54
2023/03/09 01:05:03;;;;;;;14.33;10.73;;;1.50;99.90;;;;;;5079009;28;20428;-57
2023/03/09 01:07:32;;;;;;;14.20;10.77;;;1.50;99.90;;;;;;5078850;28;20465;-56
2023/03/09 01:09:59;;;;;;;16.83;12.20;;;1.60;99.90;;;;;;5078900;28;20480;-58
2023/03/09 01:12:26;;;;;;;15.80;10.97;;;1.60;99.90;;;;;;5079960;28;20552;-55
2023/03/09 01:14:54;;;;;;;16.50;11.43;;;1.60;99.90;;;;;;5079468;28;20436;-58
2023/03/09 01:17:23;;;;;;;15.03;10.90;;;1.60;99.90;;;;;;5080146;28;20550;-56
2023/03/09 01:19:50;;;;;;;14.90;11.40;;;1.60;99.90;;;;;;5080033;28;20465;-57
2023/03/09 01:22:18;;;;;;;18.00;12.00;;;1.60;99.90;;;;;;5079870;28;20435;-58
2023/03/09 01:24:45;;;;;;;18.63;11.87;;;1.60;99.90;;;;;;5079645;28;20439;-58
2023/03/09 01:27:12;;;;;;;16.73;11.63;;;1.60;99.90;;;;;;5079781;28;20461;-58
2023/03/09 01:29:39;;;;;;;15.93;11.10;;;1.60;99.90;;;;;;5080485;28;20773;-58
2023/03/09 01:32:07;;;;;;;17.90;11.90;;;1.60;99.90;;;;;;5079702;28;20465;-58
2023/03/09 01:34:35;;;;;;;18.47;11.90;;;1.60;99.90;;;;;;5079161;28;20457;-54
2023/03/09 01:37:02;;;;;;;17.67;12.50;;;1.70;99.90;;;;;;5066765;28;20513;-59
2023/03/09 01:39:29;;;;;;;17.23;11.07;;;1.60;99.90;;;;;;5071213;28;20461;-57
2023/03/09 01:41:58;;;;;;;18.73;13.20;;;1.60;99.90;;;;;;5079547;28;20461;-59
2023/03/09 01:44:25;;;;;;;18.50;13.47;;;1.60;99.90;;;;;;5078843;28;20461;-57
2023/03/09 01:46:55;;;;;;;20.33;13.53;;;1.60;99.90;;;;;;5079456;28;20463;-57
2023/03/09 01:49:29;;;;;;;18.40;12.30;;;1.60;99.90;;;;;;5079881;28;20472;-59
2023/03/09 01:52:02;;;;;;;15.73;11.33;;;1.60;99.90;;;;;;5080254;28;20457;-58
2023/03/09 01:54:35;;;;;;;14.70;10.63;;;1.50;99.90;;;;;;5079901;28;20486;-59
2023/03/09 01:57:09;;;;;;;13.77;9.50;;;1.50;99.90;;;;;;5078074;28;20505;-58
2023/03/09 01:59:38;;;;;;;15.20;11.00;;;1.60;99.90;;;;;;5079309;28;20441;-60
2023/03/09 02:02:06;;;;;;;14.90;10.60;;;1.60;99.90;;;;;;5079030;28;20480;-60
2023/03/09 02:04:38;;;;;;;14.77;10.50;;;1.60;99.90;;;;;;5079249;28;20461;-59
2023/03/09 02:07:07;;;;;;;14.37;9.80;;;1.60;99.90;;;;;;5079313;28;20467;-60
2023/03/09 02:09:39;;;;;;;15.53;10.73;;;1.60;99.90;;;;;;5079495;28;20461;-58
2023/03/09 02:12:09;;;;;;;18.73;12.07;;;1.50;99.90;;;;;;5058995;28;20562;-57
2023/03/09 02:14:36;;;;;;;16.83;11.40;;;1.60;99.90;;;;;;5059036;28;20463;-58
2023/03/09 02:17:03;;;;;;;17.83;10.90;;;1.60;99.90;;;;;;5059205;28;20560;-60
2023/03/09 02:19:50;;;;;;;16.60;11.03;;;1.50;99.90;;;;;;5059226;28;20490;-59
2023/03/09 02:22:18;;;;;;;18.43;12.40;;;1.50;99.90;;;;;;5058875;28;20476;-58
2023/03/09 02:24:58;;;;;;;15.60;11.47;;;1.50;99.90;;;;;;5059078;28;20469;-60
2023/03/09 02:27:28;;;;;;;16.47;10.80;;;1.50;99.90;;;;;;5058984;28;20425;-60
2023/03/09 02:29:56;;;;;;;18.00;12.60;;;1.40;99.90;;;;;;5075833;28;20890;-60
2023/03/09 02:32:24;;;;;;;19.30;12.13;;;1.40;99.90;;;;;;5078606;28;20461;-61
2023/03/09 02:34:51;;;;;;;20.63;12.07;;;1.40;99.90;;;;;;5079313;28;20449;-59
2023/03/09 02:37:31;;;;;;;19.07;12.00;;;1.40;99.90;;;;;;5078890;28;20493;-60
2023/03/09 02:40:01;;;;;;;19.87;12.60;;;1.40;99.90;;;;;;5077419;28;20472;-60
2023/03/09 02:42:29;;;;;;;17.63;12.30;;;1.40;99.90;;;;;;5077952;28;20462;-60
2023/03/09 02:44:57;;;;;;;21.27;13.47;;;1.30;99.90;;;;;;5078875;28;20458;-60
2023/03/09 02:47:25;;;;;;;21.13;13.67;;;1.30;99.90;;;;;;5079003;28;20480;-59
2023/03/09 02:49:52;;;;;;;23.37;13.60;;;1.30;99.90;;;;;;5077538;28;20440;-60
2023/03/09 02:52:19;;;;;;;28.67;13.97;;;1.30;99.90;;;;;;5078167;28;20440;-61
2023/03/09 02:54:46;;;;;;;23.37;13.77;;;1.20;99.90;;;;;;5077587;28;20515;-61
2023/03/09 02:57:13;;;;;;;24.33;14.33;;;1.20;99.90;;;;;;5077466;28;20481;-61
2023/03/09 02:59:42;;;;;;;22.07;13.00;;;1.20;99.90;;;;;;5077877;28;20439;-60
2023/03/09 03:02:10;;;;;;;24.40;14.73;;;1.30;99.90;;;;;;5078097;28;20453;-61
2023/03/09 03:04:37;;;;;;;20.63;12.63;;;1.30;99.90;;;;;;5078085;28;20461;-61
2023/03/09 03:07:04;;;;;;;21.80;12.77;;;1.30;99.90;;;;;;5077663;28;20465;-61
2023/03/09 03:09:31;;;;;;;17.80;12.17;;;1.40;99.90;;;;;;5078335;28;20465;-60
2023/03/09 03:11:59;;;;;;;21.13;12.50;;;1.30;99.90;;;;;;5078063;28;20461;-61
2023/03/09 03:14:26;;;;;;;18.57;13.10;;;1.40;99.90;;;;;;5077989;28;20444;-60
2023/03/09 03:16:54;;;;;;;21.17;12.93;;;1.40;99.90;;;;;;5077677;28;20912;-61
2023/03/09 03:19:22;;;;;;;21.80;12.17;;;1.40;99.90;;;;;;5078209;28;20488;-60
2023/03/09 03:21:49;;;;;;;19.40;12.77;;;1.40;99.90;;;;;;5077122;28;20461;-60
2023/03/09 03:24:16;;;;;;;19.37;12.37;;;1.40;99.90;;;;;;5077974;28;20457;-61
2023/03/09 03:26:44;;;;;;;17.40;11.33;;;1.40;99.90;;;;;;5077471;28;20889;-59
2023/03/09 03:29:11;;;;;;;16.17;11.43;;;1.40;99.90;;;;;;5077568;28;20465;-61
2023/03/09 03:31:38;;;;;;;20.03;12.03;;;1.40;99.90;;;;;;5077468;28;20457;-61
2023/03/09 03:34:06;;;;;;;18.80;12.60;;;1.40;99.90;;;;;;5058302;28;20462;-61
2023/03/09 03:36:34;;;;;;;20.00;12.30;;;1.40;99.90;;;;;;5059850;28;21145;-61
2023/03/09 03:39:01;;;;;;;19.40;13.43;;;1.40;99.90;;;;;;5077799;28;20516;-61
2023/03/09 03:41:28;;;;;;;18.90;11.37;;;1.40;99.90;;;;;;5077755;28;20466;-61
2023/03/09 03:43:55;;;;;;;17.33;12.07;;;1.40;99.90;;;;;;5077112;28;20473;-61
2023/03/09 03:46:22;;;;;;;18.83;11.80;;;1.40;99.90;;;;;;5077958;28;20904;-59
2023/03/09 03:48:49;;;;;;;18.43;11.90;;;1.40;99.90;;;;;;5076557;28;20457;-62
2023/03/09 03:51:17;;;;;;;19.03;11.67;;;1.40;99.90;;;;;;5077607;28;20520;-62
2023/03/09 03:53:45;;;;;;;22.70;12.50;;;1.40;99.90;;;;;;5075376;28;20477;-61
2023/03/09 03:56:12;;;;;;;20.43;12.63;;;1.30;99.90;;;;;;5077656;28;20817;-61
2023/03/09 03:58:39;;;;;;;17.47;11.63;;;1.40;99.90;;;;;;5075818;28;20584;-62
2023/03/09 04:01:06;;;;;;;23.07;13.87;;;1.40;99.90;;;;;;5076721;28;20468;-61
2023/03/09 04:03:33;;;;;;;19.00;12.00;;;1.40;99.90;;;;;;5077259;28;20559;-61
2023/03/09 04:06:02;;;;;;;17.83;11.27;;;1.40;99.90;;;;;;5077038;28;20468;-62
2023/03/09 04:08:31;;;;;;;20.70;13.23;;;1.50;99.90;;;;;;5076916;28;20523;-62
2023/03/09 04:10:59;;;;;;;18.13;11.83;;;1.50;99.90;;;;;;5077120;28;20771;-62
2023/03/09 04:13:26;;;;;;;18.23;11.57;;;1.40;99.90;;;;;;5077450;28;20885;-62
2023/03/09 04:15:53;;;;;;;21.27;13.93;;;1.50;99.90;;;;;;5077122;28;20886;-62
2023/03/09 04:18:21;;;;;;;21.57;12.77;;;1.40;99.90;;;;;;5076701;28;20494;-62
2023/03/09 04:20:48;;;;;;;19.73;12.40;;;1.40;99.90;;;;;;5076823;28;20447;-62
2023/03/09 04:23:15;;;;;;;21.13;14.50;;;1.40;99.90;;;;;;5077185;28;20468;-62
2023/03/09 04:25:43;;;;;;;18.20;11.67;;;1.40;99.90;;;;;;5077653;28;20889;-62
2023/03/09 04:28:10;;;;;;;20.10;11.10;;;1.40;99.90;;;;;;5076746;28;20457;-62
2023/03/09 04:30:37;;;;;;;18.23;12.17;;;1.40;99.90;;;;;;5076293;28;20461;-62
2023/03/09 04:33:04;;;;;;;16.67;11.23;;;1.40;99.90;;;;;;5076682;28;20473;-62
2023/03/09 04:35:32;;;;;;;17.87;11.63;;;1.50;99.90;;;;;;5077236;28;20461;-62
2023/03/09 04:37:59;;;;;;;20.93;13.07;;;1.50;99.90;;;;;;5076697;28;20922;-62
2023/03/09 04:40:26;;;;;;;20.37;11.73;;;1.50;99.90;;;;;;5075129;28;20898;-62
2023/03/09 04:42:55;;;;;;;19.63;13.17;;;1.60;99.90;;;;;;5075148;28;20476;-62
2023/03/09 04:45:22;;;;;;;18.87;11.43;;;1.60;99.90;;;;;;5072414;28;20468;-62
2023/03/09 04:47:49;;;;;;;19.00;12.53;;;1.60;99.90;;;;;;5075213;28;20443;-62
2023/03/09 04:50:16;;;;;;;20.50;12.60;;;1.60;99.90;;;;;;5074748;28;20477;-62
2023/03/09 04:52:43;;;;;;;21.77;12.60;;;1.60;99.90;;;;;;5075070;28;20455;-62
2023/03/09 04:55:11;;;;;;;20.17;12.67;;;1.50;99.90;;;;;;5060353;28;20896;-62
2023/03/09 04:57:38;;;;;;;23.20;13.60;;;1.50;99.90;;;;;;5057145;28;20523;-62
2023/03/09 05:00:10;;;;;;;21.53;12.97;;;1.50;99.90;;;;;;5056433;28;20467;-62
2023/03/09 05:02:38;;;;;;;20.47;12.87;;;1.50;99.90;;;;;;5076024;28;20472;-62
2023/03/09 05:05:06;;;;;;;23.03;12.60;;;1.50;99.90;;;;;;5076496;28;20812;-62
2023/03/09 05:07:33;;;;;;;20.73;12.03;;;1.50;99.90;;;;;;5076727;28;20519;-62
2023/03/09 05:10:00;;;;;;;24.00;13.70;;;1.60;99.90;;;;;;5076440;28;20896;-62
2023/03/09 05:12:31;;;;;;;21.20;14.17;;;1.80;99.90;;;;;;5075555;28;20472;-62
2023/03/09 05:14:58;;;;;;;26.90;15.40;;;1.80;99.90;;;;;;5070057;28;20871;-62
2023/03/09 05:17:27;;;;;;;20.13;12.90;;;1.80;99.90;;;;;;5075739;28;20519;-62
2023/03/09 05:19:54;;;;;;;22.70;12.63;;;1.80;99.90;;;;;;5074029;28;20497;-62
2023/03/09 05:22:22;;;;;;;22.20;13.27;;;1.70;99.90;;;;;;5076165;28;20832;-62
2023/03/09 05:24:49;;;;;;;21.03;13.47;;;1.60;99.90;;;;;;5080030;28;20471;-62
2023/03/09 05:27:17;;;;;;;22.50;13.43;;;1.60;99.90;;;;;;5078136;28;20465;-62
2023/03/09 05:29:44;;;;;;;25.93;13.60;;;1.60;99.90;;;;;;5079511;28;20839;-62
2023/03/09 05:32:11;;;;;;;28.23;14.00;;;1.60;99.90;;;;;;5077959;28;20971;-61
2023/03/09 05:34:43;;;;;;;21.03;12.80;;;1.60;99.90;;;;;;5078637;28;20762;-62
2023/03/09 05:37:10;;;;;;;27.43;13.27;;;1.60;99.90;;;;;;5075999;28;20457;-62
2023/03/09 05:39:37;;;;;;;26.67;12.83;;;1.50;99.90;;;;;;5077908;28;20723;-61
2023/03/09 05:42:05;;;;;;;21.83;12.80;;;1.50;99.90;;;;;;5076619;28;20901;-62
2023/03/09 05:44:32;;;;;;;18.93;11.87;;;1.50;99.90;;;;;;5076792;28;20515;-62
2023/03/09 05:46:59;;;;;;;21.57;13.20;;;1.50;99.90;;;;;;5077278;28;22054;-62
2023/03/09 05:49:30;;;;;;;23.73;13.00;;;1.60;99.90;;;;;;5073999;28;20905;-62
2023/03/09 05:51:59;;;;;;;28.23;14.53;;;1.60;99.90;;;;;;5076432;28;20522;-62
2023/03/09 05:54:27;;;;;;;22.67;10.83;;;1.60;99.90;;;;;;5077340;28;20476;-62
2023/03/09 05:56:54;;;;;;;18.57;11.70;;;1.60;99.90;;;;;;5078232;28;20465;-62
2023/03/09 05:59:22;;;;;;;23.60;13.03;;;1.70;99.90;;;;;;5078505;28;20618;-62
2023/03/09 06:01:49;;;;;;;28.17;14.30;;;1.70;99.90;;;;;;5075937;28;20461;-62
2023/03/09 06:04:16;;;;;;;25.43;12.70;;;1.60;99.90;;;;;;5076828;28;20460;-62
2023/03/09 06:06:43;;;;;;;26.73;13.87;;;1.60;99.90;;;;;;5076700;28;20476;-62
2023/03/09 06:09:12;;;;;;;28.37;13.67;;;1.70;99.90;;;;;;5077052;28;20457;-62
2023/03/09 06:11:39;;;;;;;23.50;12.80;;;1.60;99.90;;;;;;5077122;28;20461;-61
2023/03/09 06:14:06;;;;;;;25.53;12.47;;;1.70;99.90;;;;;;5077132;28;20465;-62
2023/03/09 06:16:33;;;;;;;29.70;14.67;;;1.70;99.90;;;;;;5078998;28;20804;-62
2023/03/09 06:19:00;;;;;;;29.43;14.37;;;1.70;99.90;;;;;;5077939;28;20493;-62
2023/03/09 06:21:27;;;;;;;29.17;14.23;;;1.70;99.90;;;;;;5077280;28;20465;-62
2023/03/09 06:23:55;;;;;;;38.87;14.87;;;1.80;99.90;;;;;;5076424;28;20465;-62
2023/03/09 06:26:24;;;;;;;33.40;15.37;;;1.80;99.90;;;;;;5076981;28;20461;-62
2023/03/09 06:28:51;;;;;;;26.23;13.53;;;1.70;99.90;;;;;;5076813;28;20461;-62
2023/03/09 06:31:25;;;;;;;28.80;13.70;;;1.70;99.90;;;;;;5075207;28;20909;-62
2023/03/09 06:33:52;;;;;;;33.40;13.37;;;1.80;99.90;;;;;;5071211;28;20894;-62
2023/03/09 06:36:19;;;;;;;34.90;15.33;;;1.80;99.90;;;;;;5074323;28;20465;-62
2023/03/09 06:38:47;;;;;;;35.70;14.77;;;1.80;99.90;;;;;;5076051;28;20481;-62
2023/03/09 06:41:14;;;;;;;30.80;14.03;;;1.80;99.90;;;;;;5076343;28;20470;-62
2023/03/09 06:43:45;;;;;;;38.67;16.13;;;1.80;99.90;;;;;;5075439;28;20465;-62
2023/03/09 06:46:12;;;;;;;26.20;14.30;;;1.80;99.90;;;;;;5074305;28;20454;-62
2023/03/09 06:48:39;;;;;;;34.13;14.70;;;1.80;99.90;;;;;;5074507;28;20469;-62
2023/03/09 06:51:06;;;;;;;34.33;14.97;;;1.80;99.90;;;;;;5075258;28;20461;-62
2023/03/09 06:53:33;;;;;;;32.63;13.97;;;1.80;99.90;;;;;;5075830;28;20461;-61
2023/03/09 06:56:01;;;;;;;37.70;15.53;;;1.80;99.90;;;;;;5075576;28;20529;-62
2023/03/09 06:58:28;;;;;;;37.80;16.83;;;1.80;99.90;;;;;;5076769;28;20459;-62
2023/03/09 07:00:57;;;;;;;36.83;15.60;;;1.80;99.90;;;;;;5076456;28;20515;-62
2023/03/09 07:03:24;;;;;;;48.57;17.77;;;1.90;99.90;;;;;;5077236;28;20464;-62
2023/03/09 07:05:51;;;;;;;34.13;15.00;;;1.90;99.90;;;;;;5076984;28;20778;-62
2023/03/09 07:08:19;;;;;;;42.53;15.60;;;1.90;99.90;;;;;;5077934;28;20442;-62
2023/03/09 07:10:46;;;;;;;45.97;18.17;;;1.90;99.90;;;;;;5078144;28;20861;-62
2023/03/09 07:13:14;;;;;;;81.00;22.53;;;2.00;99.90;;;;;;5078023;28;20458;-62
2023/03/09 07:15:41;;;;;;;43.83;20.60;;;2.00;99.90;;;;;;5078157;28;20457;-62
2023/03/09 07:18:10;;;;;;;54.87;24.50;;;2.10;99.90;;;;;;5076893;28;20534;-62
2023/03/09 07:20:38;;;;;;;58.93;24.17;;;2.10;99.90;;;;;;5077972;28;20546;-62
2023/03/09 07:23:05;;;;;;;56.10;23.30;;;2.10;99.90;;;;;;5077562;28;20775;-62
2023/03/09 07:25:35;;;;;;;56.97;23.23;;;2.10;99.90;;;;;;5076601;28;20453;-62
2023/03/09 07:28:03;;;;;;;42.53;19.30;;;2.10;99.90;;;;;;5076652;28;20448;-63
2023/03/09 07:30:31;;;;;;;46.17;21.33;;;2.20;99.90;;;;;;5077446;28;20458;-63
2023/03/09 07:32:59;;;;;;;51.30;22.33;;;2.20;99.90;;;;;;5077060;28;20484;-63
2023/03/09 07:35:29;;;;;;;49.33;22.47;;;2.20;99.90;;;;;;5077712;28;20488;-63
2023/03/09 07:37:56;;;;;;;53.27;22.50;;;2.20;99.90;;;;;;5076613;28;20465;-63
2023/03/09 07:40:23;;;;;;;53.90;19.43;;;2.20;99.90;;;;;;5077487;28;20511;-63
2023/03/09 07:42:53;;;;;;;57.63;22.07;;;2.20;99.90;;;;;;5076981;28;20461;-63
2023/03/09 07:45:21;;;;;;;57.57;22.87;;;2.20;99.90;;;;;;5076667;28;20461;-63
2023/03/09 07:47:48;;;;;;;50.80;19.47;;;2.20;99.90;;;;;;5076514;28;20519;-63
2023/03/09 07:50:15;;;;;;;46.40;20.50;;;2.30;99.90;;;;;;5077388;28;20515;-63
2023/03/09 07:52:44;;;;;;;49.67;21.13;;;2.40;99.90;;;;;;5077089;28;20472;-63
2023/03/09 07:55:13;;;;;;;48.77;19.13;;;2.40;99.90;;;;;;5077506;28;20461;-63
2023/03/09 07:57:40;;;;;;;48.70;20.97;;;2.40;99.90;;;;;;5077466;28;20469;-63
2023/03/09 08:00:12;;;;;;;43.73;21.20;;;2.50;99.90;;;;;;5076442;28;20507;-63
2023/03/09 08:02:40;;;;;;;55.47;19.70;;;2.50;99.90;;;;;;5074814;28;20469;-63
2023/03/09 08:05:09;;;;;;;56.73;20.20;;;2.50;99.90;;;;;;5075393;28;20530;-63
2023/03/09 08:07:36;;;;;;;62.30;21.40;;;2.60;99.90;;;;;;5075982;28;20465;-63
2023/03/09 08:10:05;;;;;;;50.70;20.97;;;2.60;99.90;;;;;;5074054;28;20461;-63
2023/03/09 08:12:32;;;;;;;52.63;20.97;;;2.60;99.90;;;;;;5074751;28;20740;-63
2023/03/09 08:14:59;;;;;;;76.30;23.63;;;2.80;99.90;;;;;;5067584;28;20512;-63
2023/03/09 08:17:27;;;;;;;53.07;21.37;;;2.80;99.90;;;;;;5056362;28;20922;-63
2023/03/09 08:19:54;;;;;;;53.80;21.10;;;2.90;99.90;;;;;;5063179;28;20493;-63
2023/03/09 08:22:23;;;;;;;49.60;21.57;;;2.90;99.90;;;;;;5076277;28;20787;-63
2023/03/09 08:24:50;;;;;;;56.83;22.80;;;3.00;99.90;;;;;;5075460;28;20462;-63
2023/03/09 08:27:18;;;;;;;49.53;22.37;;;3.00;99.90;;;;;;5075880;28;20462;-63
2023/03/09 08:29:46;;;;;;;45.80;21.13;;;2.90;99.90;;;;;;5075837;28;21016;-63
2023/03/09 08:32:14;;;;;;;45.50;21.67;;;2.90;99.90;;;;;;5074795;28;20519;-63
2023/03/09 08:34:41;;;;;;;48.60;20.20;;;2.80;99.90;;;;;;5068374;28;20465;-63
2023/03/09 08:37:08;;;;;;;47.60;21.37;;;2.80;99.90;;;;;;5073865;28;20465;-63
2023/03/09 08:39:35;;;;;;;46.47;20.30;;;2.90;99.90;;;;;;5074739;28;20516;-63
2023/03/09 08:42:02;;;;;;;41.03;19.07;;;3.00;99.90;;;;;;5075188;28;20473;-64
2023/03/09 08:44:32;;;;;;;37.73;19.70;;;3.00;99.90;;;;;;5073726;28;20807;-64
2023/03/09 08:46:59;;;;;;;41.20;19.10;;;3.00;99.90;;;;;;5069822;28;20756;-63
2023/03/09 08:49:26;;;;;;;34.07;18.43;;;3.10;99.90;;;;;;5069659;28;20751;-64
2023/03/09 08:51:53;;;;;;;38.93;20.17;;;3.10;99.90;;;;;;5070480;28;20465;-64
2023/03/09 08:54:20;;;;;;;37.60;20.17;;;3.10;99.90;;;;;;5073391;28;20446;-64
2023/03/09 08:56:47;;;;;;;36.30;20.97;;;3.20;99.90;;;;;;5078670;28;20492;-64
2023/03/09 08:59:14;;;;;;;41.07;18.40;;;3.30;99.90;;;;;;5076886;28;20921;-64
2023/03/09 09:01:44;;;;;;;32.40;18.57;;;3.30;99.90;;;;;;5077923;28;20881;-64
2023/03/09 09:04:12;;;;;;;33.87;17.77;;;3.30;99.90;;;;;;5075907;28;20465;-64
2023/03/09 09:06:40;;;;;;;42.73;20.00;;;3.40;99.90;;;;;;5077087;28;20471;-64
2023/03/09 09:09:12;;;;;;;37.70;20.37;;;3.30;99.90;;;;;;5078562;28;20457;-64
2023/03/09 09:11:42;;;;;;;36.43;18.00;;;3.40;99.90;;;;;;5078588;28;20770;-65
2023/03/09 09:14:09;;;;;;;35.70;19.80;;;3.40;99.90;;;;;;5078691;28;20458;-65
2023/03/09 09:16:37;;;;;;;34.60;20.17;;;3.40;99.90;;;;;;5075468;28;20469;-66
2023/03/09 09:19:07;;;;;;;38.60;19.17;;;3.40;99.90;;;;;;5076380;28;20484;-66
2023/03/09 09:21:34;;;;;;;31.90;19.13;;;3.50;99.90;;;;;;5079347;28;20457;-66
2023/03/09 09:24:01;;;;;;;29.83;19.60;;;3.50;99.90;;;;;;5079825;28;20467;-67
2023/03/09 09:26:29;;;;;;;40.63;21.30;;;3.60;99.90;;;;;;5079768;28;20472;-67
2023/03/09 09:28:56;;;;;;;40.37;20.03;;;3.70;99.90;;;;;;5079904;28;20472;-67
2023/03/09 09:31:24;;;;;;;34.97;19.80;;;3.70;99.90;;;;;;5079382;28;20469;-67
2023/03/09 09:33:51;;;;;;;32.60;19.57;;;3.60;99.90;;;;;;5079690;28;20489;-67
2023/03/09 09:36:20;;;;;;;35.63;21.13;;;3.70;99.90;;;;;;5079807;28;20761;-67
2023/03/09 09:38:47;;;;;;;30.70;19.07;;;3.60;99.90;;;;;;5079999;28;20465;-67
2023/03/09 09:41:22;;;;;;;32.80;19.47;;;3.60;99.90;;;;;;5079946;28;20516;-67
2023/03/09 09:43:53;;;;;;;25.33;16.50;;;3.60;99.90;;;;;;5059679;28;20775;-68
2023/03/09 09:46:22;;;;;;;25.00;14.80;;;3.70;99.90;;;;;;5065669;28;20775;-68
2023/03/09 09:48:49;;;;;;;31.70;16.17;;;3.80;99.90;;;;;;5079841;28;20465;-68
2023/03/09 09:51:40;;;;;;;24.00;14.47;;;3.90;99.90;;;;;;5080197;28;20449;-69
2023/03/09 09:54:12;;;;;;;23.27;14.27;;;4.00;99.90;;;;;;5078578;28;20780;-69
2023/03/09 09:56:46;;;;;;;25.90;15.40;;;4.00;99.90;;;;;;5079535;28;20458;-70
2023/03/09 09:59:20;;;;;;;26.80;15.53;;;4.00;99.90;;;;;;5079491;28;20813;-70
2023/03/09 10:01:57;;;;;;;23.77;14.40;;;4.00;99.90;;;;;;5079230;28;20525;-70
2023/03/09 10:04:30;;;;;;;25.37;15.53;;;4.00;99.90;;;;;;5078238;28;20472;-69
2023/03/09 10:07:05;;;;;;;27.63;16.13;;;4.10;99.90;;;;;;5078380;28;20779;-69
2023/03/09 10:09:33;;;;;;;27.10;16.27;;;4.00;99.90;;;;;;5079528;28;20484;-69
2023/03/09 10:12:06;;;;;;;24.97;14.90;;;3.90;99.90;;;;;;5079191;28;20892;-69
2023/03/09 10:14:37;;;;;;;29.00;14.77;;;3.90;99.90;;;;;;5078364;28;20821;-69
2023/03/09 10:17:11;;;;;;;27.10;15.60;;;3.80;99.90;;;;;;5078947;28;20461;-68
2023/03/09 10:19:40;;;;;;;25.30;15.40;;;3.90;99.90;;;;;;5078518;28;20831;-67
2023/03/09 10:22:19;;;;;;;26.90;17.20;;;3.90;99.90;;;;;;5078829;28;20839;-67
2023/03/09 10:24:50;;;;;;;27.60;16.53;;;3.90;99.90;;;;;;5076440;28;20461;-67
2023/03/09 10:27:21;;;;;;;27.80;17.13;;;4.00;99.90;;;;;;5077223;28;20847;-67
2023/03/09 10:29:54;;;;;;;28.50;17.80;;;4.00;99.90;;;;;;5069062;28;20491;-67
2023/03/09 10:32:24;;;;;;;24.47;16.33;;;4.10;99.90;;;;;;5067592;28;20471;-67
2023/03/09 10:34:57;;;;;;;32.97;17.80;;;4.10;99.90;;;;;;5072331;28;20519;-67
2023/03/09 10:37:34;;;;;;;29.50;18.27;;;4.10;99.90;;;;;;5071761;28;20444;-67
2023/03/09 10:40:05;;;;;;;30.80;18.40;;;4.00;99.90;;;;;;5071958;28;20553;-66
2023/03/09 10:42:36;;;;;;;26.47;17.13;;;4.00;99.90;;;;;;5070341;28;20515;-67
2023/03/09 10:45:07;;;;;;;28.50;17.50;;;4.00;99.90;;;;;;5069663;28;20496;-67
2023/03/09 10:47:53;;;;;;;26.73;16.50;;;4.00;99.90;;;;;;5067932;28;20462;-67
2023/03/09 10:50:22;;;;;;;30.23;18.80;;;4.00;99.90;;;;;;5072374;28;20453;-67
2023/03/09 10:52:50;;;;;;;32.53;19.53;;;4.00;99.90;;;;;;5068276;28;20515;-67
2023/03/09 10:55:46;;;;;;;35.63;20.57;;;4.10;99.90;;;;;;5072093;28;20480;-67
2023/03/09 10:58:21;;;;;;;33.00;19.20;;;4.10;99.90;;;;;;5073173;28;20471;-66
2023/03/09 11:00:58;;;;;;;33.77;20.70;;;4.10;99.90;;;;;;5071448;28;20973;-67
2023/03/09 11:03:33;;;;;;;32.50;20.10;;;4.20;99.90;;;;;;5069768;28;20462;-67
2023/03/09 11:06:25;;;;;;;32.43;20.03;;;4.30;99.90;;;;;;5068241;28;20449;-67
2023/03/09 11:09:05;;;;;;;38.13;21.03;;;4.30;99.90;;;;;;5065080;28;20466;-68
2023/03/09 11:11:33;;;;;;;38.87;22.03;;;4.40;99.90;;;;;;5069218;28;20462;-68
2023/03/09 11:14:00;;;;;;;39.43;21.67;;;4.30;99.90;;;;;;5067095;28;20436;-69
2023/03/09 11:16:34;;;;;;;36.87;22.23;;;4.40;99.90;;;;;;5066215;28;20461;-69
2023/03/09 11:19:12;;;;;;;38.27;21.70;;;4.40;99.90;;;;;;5073659;28;20490;-70
2023/03/09 11:21:45;;;;;;;31.53;20.40;;;4.50;99.90;;;;;;5071843;28;20821;-71
2023/03/09 11:24:15;;;;;;;39.57;22.30;;;4.50;99.90;;;;;;5074383;28;20769;-71
2023/03/09 11:26:46;;;;;;;36.53;20.70;;;4.50;99.90;;;;;;5068378;28;20540;-72
2023/03/09 11:29:24;;;;;;;33.73;20.27;;;4.50;99.90;;;;;;5073149;28;20484;-73
2023/03/09 11:31:51;;;;;;;30.47;21.87;;;4.60;99.90;;;;;;5075298;28;20514;-74
2023/03/09 11:34:26;;;;;;;30.20;20.23;;;4.60;99.90;;;;;;5076961;28;20465;-74
2023/03/09 11:36:57;;;;;;;28.93;20.03;;;4.70;99.90;;;;;;5077980;28;20464;-73
2023/03/09 11:39:33;;;;;;;36.17;22.60;;;4.80;99.90;;;;;;5077613;28;20902;-73
2023/03/09 11:42:04;;;;;;;39.67;25.17;;;4.90;99.90;;;;;;5077494;28;20496;-72
2023/03/09 11:44:35;;;;;;;30.80;21.73;;;4.90;99.90;;;;;;5076877;28;20443;-71
2023/03/09 11:47:07;;;;;;;31.63;20.10;;;4.90;99.90;;;;;;5061501;28;20473;-70
2023/03/09 11:49:35;;;;;;;35.93;24.17;;;5.10;99.90;;;;;;5077593;28;20465;-71
2023/03/09 11:52:05;;;;;;;36.63;23.97;;;5.10;99.90;;;;;;5077237;28;20468;-71
2023/03/09 11:54:38;;;;;;;36.67;23.60;;;5.10;99.90;;;;;;5076841;28;20457;-70
2023/03/09 11:57:08;;;;;;;36.27;24.93;;;5.20;99.90;;;;;;5076719;28;20488;-70
2023/03/09 11:59:42;;;;;;;35.77;22.77;;;5.20;99.90;;;;;;5077239;28;20449;-70
2023/03/09 12:02:17;;;;;;;36.10;22.33;;;5.30;99.90;;;;;;5076037;28;20460;-70
2023/03/09 12:04:48;;;;;;;37.77;23.43;;;5.30;99.90;;;;;;5077015;28;20456;-69
2023/03/09 12:07:21;;;;;;;37.30;24.67;;;5.30;99.90;;;;;;5076824;28;20960;-69
2023/03/09 12:09:57;;;;;;;31.93;19.33;;;5.30;99.90;;;;;;5077214;28;20894;-68
2023/03/09 12:12:30;;;;;;;32.07;22.27;;;5.40;99.90;;;;;;5056835;28;20465;-69
2023/03/09 12:15:01;;;;;;;29.87;19.80;;;5.40;99.90;;;;;;5057220;28;20744;-68
2023/03/09 12:17:38;;;;;;;33.33;22.20;;;5.40;99.90;;;;;;5068803;28;20750;-68
2023/03/09 12:20:06;;;;;;;36.07;22.00;;;5.40;99.90;;;;;;5075695;28;20530;-68
2023/03/09 12:22:38;;;;;;;31.40;19.07;;;5.50;99.90;;;;;;5074967;28;20468;-68
2023/03/09 12:25:16;;;;;;;28.00;18.67;;;5.50;99.90;;;;;;5076125;28;20453;-67
2023/03/09 12:27:49;;;;;;;37.23;22.93;;;5.50;99.90;;;;;;5075093;28;20924;-67
2023/03/09 12:30:24;;;;;;;30.30;21.37;;;5.50;99.90;;;;;;5075534;28;20909;-67
2023/03/09 12:32:51;;;;;;;34.37;20.23;;;5.60;99.90;;;;;;5077049;28;20561;-68
2023/03/09 12:36:01;;;;;;;36.90;22.50;;;5.60;99.90;;;;;;5078309;28;20741;-67
2023/03/09 12:38:28;;;;;;;29.50;19.20;;;5.70;99.90;;;;;;5078333;28;20465;-68
2023/03/09 12:40:57;;;;;;;29.60;19.20;;;5.70;99.90;;;;;;5078711;28;20771;-68
2023/03/09 12:43:54;;;;;;;58.10;31.77;;;5.70;99.90;;;;;;5077967;28;20463;-68
2023/03/09 12:46:51;;;;;;;26.70;18.50;;;5.90;99.90;;;;;;5077853;28;20469;-68